This is the latest recevied weather packets stored in our database for station/object IV6ZJU-13. If no packets are shown the sender has not sent any weather packets the latest 10 day(s).
| Time | Temp. | Humidity | Pressure | Rain* | Wind** | Luminosity | Snow |
|---|---|---|---|---|---|---|---|
| 1777716286 | 16.67° C | 47% | 1016.5 hPa | - | - | - | - |
| 1777715386 | 16.11° C | 47% | 1016.5 hPa | - | - | - | - |
| 1777714486 | 16.11° C | 53% | 1016.6 hPa | - | - | - | - |
| 1777713586 | 15.56° C | 54% | 1016.7 hPa | - | - | - | - |
| 1777712686 | 15.56° C | 51% | 1016.7 hPa | - | - | - | - |
| 1777711786 | 15.56° C | 57% | 1016.8 hPa | - | - | - | - |
| 1777710885 | 15° C | 59% | 1016.8 hPa | - | - | - | - |
| 1777709985 | 15° C | 60% | 1016.7 hPa | - | - | - | - |
| 1777709085 | 15° C | 59% | 1016.9 hPa | - | - | - | - |
| 1777708185 | 15° C | 60% | 1016.8 hPa | - | - | - | - |
| 1777707285 | 15° C | 59% | 1016.7 hPa | - | - | - | - |
| 1777706385 | 14.44° C | 58% | 1016.5 hPa | - | - | - | - |
| 1777705484 | 14.44° C | 59% | 1016.5 hPa | - | - | - | - |
| 1777704585 | 13.89° C | 59% | 1016.4 hPa | - | - | - | - |
| 1777703684 | 13.89° C | 59% | 1016.4 hPa | - | - | - | - |
| 1777702785 | 13.33° C | 57% | 1016.5 hPa | - | - | - | - |
| 1777701884 | 13.33° C | 57% | 1016.5 hPa | - | - | - | - |
| 1777700986 | 12.78° C | 57% | 1016.3 hPa | - | - | - | - |
| 1777700082 | 12.78° C | 57% | 1016.5 hPa | - | - | - | - |
| 1777699184 | 12.22° C | 56% | 1016.4 hPa | - | - | - | - |
| 1777698282 | 11.67° C | 55% | 1016.3 hPa | - | - | - | - |
| 1777697384 | 10.56° C | 56% | 1015 hPa | - | - | - | - |
| 1777696479 | 11.11° C | 56% | 1016.2 hPa | - | - | - | - |
| 1777695579 | 10.56° C | 56% | 1015.8 hPa | - | - | - | - |
| 1777694684 | 11.11° C | 58% | 1016.1 hPa | - | - | - | - |
* Rain since midnight (hover to see other rain measurements)
** Current wind speed in m/s (hover to see current wind gust speed)